North Branford, CT (06471)

8:24 AM EDT on July 29, 2016 (GMT -0400)
Branford | | Change Station

Elev 125 ft 41.30 °N, 72.79 °W | Updated 20 seconds ago

Light Rain
Light Rain
69.1 °F
Feels Like 69.1 °F
N
0.0
Wind Variable Wind from NW
Gusts 0.0 mph

Today
High -- | Low -- °F
--% Chance of Precip.
Yesterday
High -- | Low -- °F
Precip. -- in
Pressure 29.86 in
Visibility 9.0 miles
Clouds Scattered Clouds 4600 ft
Overcast 6500 ft
Dew Point 67 °F
Humidity 94%
Rainfall 0.25 in
Snow Depth Not available.
5:43 AM 8:10 PM
Waning Crescent, 22% visible
METAR KHVN 291153Z 04006KT 9SM -RA SCT046 OVC065 22/20 A2985 RMK AO2 SLP109 P0003 60014 70014 T02170200 10256 20211 55001 $
Pressure 29.86 in
Visibility 9.0 miles
Clouds Scattered Clouds 4600 ft
Overcast 6500 ft
Dew Point 67 °F
Humidity 94%
Rainfall 0.25 in
Snow Depth Not available.
5:43 AM 8:10 PM
Waning Crescent, 22% visible
METAR KHVN 291153Z 04006KT 9SM -RA SCT046 OVC065 22/20 A2985 RMK AO2 SLP109 P0003 60014 70014 T02170200 10256 20211 55001 $

10-Day Weather Forecast

Almanac

Astronomy

Jul. 29, 2016 Rise Set
Actual Time
Civil Twilight
Nautical Twilight
Astronomical Twilight
Moon
Length of Visible Light
Length of Day
Tomorrow will be .
, % of the Moon is Illuminated

Today's Extremes

State Highs State Lows

Community

WunderPhotos

Upload Photos

1,928,335 photos uploaded!

WunderBlog® & News

Nearby

Air Quality

  Air Quality AQ Index Pollutant
Not available.

Snow Depth

Station Depth Elevation

Earthquake Activity

City Distance Mag. Time & Date
Minimum magnitude displayed is 2.5.

Coastal Water Temperatures

Place Temperature

Stations

Nearby Weather Stations

Station Location Temp. Windchill Dew Point Humidity Wind Precip. Elev Updated Type
                   

Watches & Warnings

There are currently no watches in effect.